ADDS METAR Data INFO
IDs: Format: Raw Decoded Include TAF

Data at: 0851 UTC 22 Feb 2018

K04V 211948Z AUTO 18010G16KT 10SM CLR M01/M15 A3004 RMK AO2
K04V 211936Z AUTO 17010KT 10SM CLR M01/M15 A3005 RMK AO2
K04V 211912Z AUTO 18007KT 142V202 10SM CLR M02/M16 A3006 RMK AO2
K04V 211852Z AUTO 13004KT 10SM CLR M02/M16 A3007 RMK AO2
K04V 211754Z AUTO 12004KT 10SM CLR M04/M16 A3010 RMK AO2
K04V 211736Z AUTO 00000KT 10SM CLR M05/M16 A3011 RMK AO2
K04V 211712Z AUTO 00000KT 10SM CLR M06/M15 A3012 RMK AO2
K04V 211654Z AUTO 32005KT 10SM CLR M07/M16 A3012 RMK AO2
K04V 211636Z AUTO 32006KT 10SM CLR M08/M16 A3012 RMK AO2
K04V 211612Z AUTO 32009KT 10SM CLR M10/M17 A3012 RMK AO2
K04V 211554Z AUTO 32012KT 10SM CLR M11/M18 A3013 RMK AO2
K04V 211536Z AUTO 32014KT 10SM CLR M13/M19 A3013 RMK AO2
K04V 211512Z AUTO 32016KT 10SM CLR M13/M20 A3013 RMK AO2
K04V 201455Z AUTO 30004KT 10SM CLR M12/M16 A2979 RMK AO2
K04V 211454Z AUTO 32013KT 10SM CLR M15/M20 A3013 RMK AO2
K04V 211436Z AUTO 33010KT 10SM CLR M16/M21 A3013 RMK AO2
K04V 211412Z AUTO 33010KT 10SM CLR M17/M21 A3012 RMK AO2
K04V 211354Z AUTO 33011KT 10SM CLR M17/M21 A3012 RMK AO2
K04V 211336Z AUTO 33008KT 10SM CLR M17/M21 A3012 RMK AO2
K04V 211312Z AUTO 33014G17KT 10SM CLR M17/M21 A3012 RMK AO2
K04V 211254Z AUTO 33011KT 10SM CLR M17/M21 A3012 RMK AO2
K04V 211236Z AUTO 33010KT 10SM CLR M17/M21 A3011 RMK AO2
K04V 210755Z AUTO 35006KT 10SM CLR M15/M19 A3011 RMK AO2
K04V 210731Z AUTO 32009KT 10SM CLR M16/M19 A3010 RMK AO2
K04V 210713Z AUTO 33009KT 10SM CLR M15/M18 A3009 RMK AO2
K04V 210654Z AUTO 34008KT 10SM CLR M15/M18 A3009 RMK AO2
K04V 210636Z AUTO 32004KT 10SM CLR M15/M18 A3009 RMK AO2
K04V 210612Z AUTO 34007KT 10SM CLR M14/M17 A3009 RMK AO2
K04V 210554Z AUTO 33007KT 10SM CLR M14/M17 A3008 RMK AO2